Time;durP1;ratioP1;P1;durP2;ratioP2;P2;SDS_P1;SDS_P2;PMS_P1;PMS_P2;Temp;Humidity;BMP_temperature;BMP_pressure;BME280_temperature;BME280_humidity;BME280_pressure;Samples;Min_cycle;Max_cycle;Signal;HPM_P1;HPM_P2
2022/12/23 00:01:02;;;;;;;32.47;14.30;;;;;;;-148.88;100.00;75184.16;5016630;28;20038;-79
2022/12/23 00:03:30;;;;;;;29.02;13.35;;;;;;;-148.88;100.00;75192.28;5018302;28;20021;-79
2022/12/23 00:05:55;;;;;;;28.73;14.27;;;;;;;-148.88;100.00;75174.00;5017786;28;20022;-79
2022/12/23 00:08:22;;;;;;;26.05;13.00;;;;;;;-148.88;100.00;75178.06;5016595;28;20022;-79
2022/12/23 00:10:49;;;;;;;32.03;14.95;;;;;;;-148.88;100.00;75180.09;5016372;28;20041;-79
2022/12/23 00:16:08;;;;;;;28.38;14.20;;;;;;;-148.88;100.00;75167.91;5016497;28;20036;-79
2022/12/23 00:18:34;;;;;;;31.27;13.52;;;;;;;-148.88;100.00;75167.91;5017141;28;20053;-79
2022/12/23 00:21:05;;;;;;;27.70;13.27;;;;;;;-148.88;100.00;75155.72;5014918;28;20413;-78
2022/12/23 00:23:31;;;;;;;32.67;13.65;;;;;;;-148.88;100.00;75155.72;5013832;28;20054;-79
2022/12/23 00:25:57;;;;;;;35.25;15.00;;;;;;;-148.88;100.00;75161.81;5015778;28;20480;-79
2022/12/23 00:28:23;;;;;;;31.27;14.98;;;;;;;-148.88;100.00;75153.69;5013739;28;20022;-79
2022/12/23 00:30:54;;;;;;;31.27;14.05;;;;;;;-148.88;100.00;75155.72;5015612;28;20018;-78
2022/12/23 00:33:26;;;;;;;30.33;15.10;;;;;;;-148.88;100.00;75169.94;5015169;28;20025;-79
2022/12/23 00:35:52;;;;;;;29.55;13.35;;;;;;;-148.88;100.00;75157.75;5015406;28;20075;-79
2022/12/23 00:42:52;;;;;;;31.10;13.82;;;;;;;-148.88;100.00;75155.72;5016536;28;20025;-79
2022/12/23 00:43:54;;;;;;;27.10;12.15;;;;;;;-148.88;100.00;75165.88;5015315;28;20468;-79
2022/12/23 00:46:19;;;;;;;32.25;12.68;;;;;;;-148.88;100.00;75167.91;5015820;28;20472;-79
2022/12/23 00:51:28;;;;;;;29.98;12.27;;;;;;;-148.88;100.00;75159.78;5015423;28;20452;-79
2022/12/23 00:53:54;;;;;;;23.60;11.77;;;;;;;-148.88;100.00;75155.72;5015115;28;20025;-79
2022/12/23 00:56:19;;;;;;;21.67;11.27;;;;;;;-148.88;100.00;75151.66;5015495;28;20041;-79
2022/12/23 00:58:44;;;;;;;24.45;11.57;;;;;;;-148.88;100.00;75155.72;5013870;28;20028;-78
2022/12/23 01:06:37;;;;;;;;;;;;;;;-148.88;100.00;75165.88;5014666;28;20061;-79
2022/12/23 01:09:02;;;;;;;17.23;9.37;;;;;;;-148.88;100.00;75171.97;5014179;28;20340;-79
2022/12/23 01:11:27;;;;;;;21.77;11.70;;;;;;;-148.88;100.00;75171.97;5014118;28;20334;-79
2022/12/23 01:13:53;;;;;;;24.13;11.80;;;;;;;-148.88;100.00;75171.97;5015412;28;20030;-79
2022/12/23 01:16:18;;;;;;;23.52;10.02;;;;;;;-148.88;100.00;75174.00;5014387;28;20025;-79
2022/12/23 01:18:44;;;;;;;23.25;10.73;;;;;;;-148.88;100.00;75182.13;5014880;28;20420;-79
2022/12/23 01:21:09;;;;;;;23.33;9.68;;;;;;;-148.88;100.00;75180.09;5014859;28;20037;-79
2022/12/23 01:23:35;;;;;;;21.38;10.68;;;;;;;-148.88;100.00;75165.88;5015070;28;20048;-79
2022/12/23 01:26:04;;;;;;;23.67;9.90;;;;;;;-148.88;100.00;75174.00;5014857;28;20468;-79
2022/12/23 01:28:30;;;;;;;18.95;9.98;;;;;;;-148.88;100.00;75155.72;5014629;28;20079;-79
2022/12/23 01:30:56;;;;;;;21.58;10.43;;;;;;;-148.88;100.00;75171.97;5014805;28;20018;-79
2022/12/23 01:33:22;;;;;;;22.10;10.63;;;;;;;-148.88;100.00;75180.09;5012991;28;20525;-79
2022/12/23 01:35:47;;;;;;;20.83;9.77;;;;;;;-148.88;100.00;75184.16;5013303;28;20156;-79
2022/12/23 01:38:13;;;;;;;17.38;9.32;;;;;;;-148.88;100.00;75176.03;5013231;28;20030;-79
2022/12/23 01:40:40;;;;;;;20.17;10.18;;;;;;;-148.88;100.00;75184.16;5013038;28;20030;-79
2022/12/23 01:43:05;;;;;;;24.23;10.00;;;;;;;-148.88;100.00;75180.09;5013635;28;20123;-79
2022/12/23 01:45:32;;;;;;;24.88;11.80;;;;;;;-148.88;100.00;75192.28;5013820;28;20054;-79
2022/12/23 01:48:12;;;;;;;29.48;11.15;;;;;;;-148.88;100.00;75188.22;5014486;28;20040;-79
2022/12/23 01:50:45;;;;;;;23.30;11.65;;;;;;;-148.88;100.00;75184.16;5015053;28;20029;-79
2022/12/23 01:53:15;;;;;;;27.63;11.77;;;;;;;-148.88;100.00;75178.06;5013551;28;20076;-79
2022/12/23 01:55:51;;;;;;;26.23;11.95;;;;;;;-148.88;100.00;75194.31;5015575;28;20452;-79
2022/12/23 01:58:23;;;;;;;26.13;11.60;;;;;;;-148.88;100.00;75190.25;5015292;28;20499;-79
2022/12/23 02:03:41;;;;;;;28.95;12.35;;;;;;;-148.88;100.00;75192.28;5014286;28;20033;-79
2022/12/23 02:11:37;;;;;;;30.50;12.73;;;;;;;-148.88;100.00;75186.19;4995135;28;20388;-78
2022/12/23 02:17:13;;;;;;;29.65;12.40;;;;;;;-148.88;100.00;75188.22;4997283;28;20099;-78
2022/12/23 02:19:57;;;;;;;29.67;13.80;;;;;;;-148.88;100.00;75198.38;4996480;28;20033;-78
2022/12/23 02:22:40;;;;;;;29.05;12.80;;;;;;;-148.88;100.00;75194.31;4995923;28;20022;-78
2022/12/23 02:25:32;;;;;;;25.67;12.23;;;;;;;-148.88;100.00;75200.41;4994837;28;20057;-78
2022/12/23 02:28:22;;;;;;;28.88;12.23;;;;;;;-148.88;100.00;75200.41;4995549;28;20045;-78
2022/12/23 02:30:56;;;;;;;34.40;13.43;;;;;;;-148.88;100.00;75202.44;4994364;28;20407;-77
2022/12/23 02:33:57;;;;;;;26.35;13.10;;;;;;;-148.88;100.00;75200.41;4994532;28;20109;-77
2022/12/23 02:36:37;;;;;;;19.42;10.30;;;;;;;-148.88;100.00;75200.41;4994464;28;20057;-77
2022/12/23 02:39:33;;;;;;;21.20;9.90;;;;;;;-148.88;100.00;75208.53;4994664;28;20474;-77
2022/12/23 02:42:06;;;;;;;21.08;8.98;;;;;;;-148.88;100.00;75196.34;4990334;28;20042;-77
2022/12/23 02:44:40;;;;;;;21.25;8.35;;;;;;;-148.88;100.00;75192.28;4994153;28;20476;-78
2022/12/23 02:47:10;;;;;;;16.92;7.85;;;;;;;-148.88;100.00;75206.50;4995331;28;20092;-78
2022/12/23 02:49:39;;;;;;;19.10;8.93;;;;;;;-148.88;100.00;75208.53;4994697;28;20018;-78
2022/12/23 02:52:12;;;;;;;20.17;8.52;;;;;;;-148.88;100.00;75202.44;4997997;28;20090;-78
2022/12/23 02:54:55;;;;;;;21.08;8.90;;;;;;;-148.88;100.00;75208.53;5000268;28;20034;-78
2022/12/23 02:57:28;;;;;;;23.25;8.80;;;;;;;-148.88;100.00;75200.41;5000782;28;20030;-78
2022/12/23 02:59:55;;;;;;;17.42;8.20;;;;;;;-148.88;100.00;75214.63;4999024;28;20061;-78
2022/12/23 03:02:21;;;;;;;21.48;9.35;;;;;;;-148.88;100.00;75206.50;4998060;28;20032;-78
2022/12/23 03:08:17;;;;;;;22.33;9.23;;;;;;;-148.88;100.00;75208.53;4997663;28;20045;-77
2022/12/23 03:17:42;;;;;;;18.25;8.35;;;;;;;-148.88;100.00;75204.47;4997420;28;20044;-77
2022/12/23 03:20:25;;;;;;;20.60;8.90;;;;;;;-148.88;100.00;75216.66;4997280;28;20057;-77
2022/12/23 03:23:18;;;;;;;17.30;7.80;;;;;;;-148.88;100.00;75220.72;4998765;28;20062;-78
2022/12/23 03:25:57;;;;;;;17.27;8.48;;;;;;;-148.88;100.00;75218.69;4999466;28;20023;-79
2022/12/23 03:28:42;;;;;;;17.48;7.15;;;;;;;-148.88;100.00;75220.72;4998955;28;20454;-78
2022/12/23 03:31:12;;;;;;;20.55;9.20;;;;;;;-148.88;100.00;75230.88;4998518;28;20046;-78
2022/12/23 03:33:45;;;;;;;20.58;7.68;;;;;;;-148.88;100.00;75224.78;4999149;28;20023;-78
2022/12/23 03:36:36;;;;;;;20.42;8.07;;;;;;;-148.88;100.00;75241.03;4997394;28;20121;-78
2022/12/23 03:39:06;;;;;;;17.50;7.43;;;;;;;-148.88;100.00;75241.03;4997539;28;20049;-78
2022/12/23 03:41:41;;;;;;;19.60;7.85;;;;;;;-148.88;100.00;75222.75;4997244;28;20026;-77
2022/12/23 03:44:18;;;;;;;17.38;7.85;;;;;;;-148.88;100.00;75236.97;4996682;28;20484;-78
2022/12/23 03:47:07;;;;;;;17.35;8.52;;;;;;;-148.88;100.00;75232.91;4996772;28;20034;-78
2022/12/23 03:49:38;;;;;;;17.73;7.38;;;;;;;-148.88;100.00;75236.97;4992967;28;20049;-77
2022/12/23 03:52:11;;;;;;;17.50;7.35;;;;;;;-148.88;100.00;75224.78;4997059;28;20030;-77
2022/12/23 03:54:44;;;;;;;18.00;6.37;;;;;;;-148.88;100.00;75232.91;4996931;28;20027;-77
2022/12/23 03:57:11;;;;;;;16.25;6.97;;;;;;;-148.88;100.00;75243.06;4997358;28;20030;-78
2022/12/23 03:59:41;;;;;;;12.13;6.07;;;;;;;-148.88;100.00;75236.97;4997302;28;20105;-78
2022/12/23 04:02:24;;;;;;;16.15;6.60;;;;;;;-148.88;100.00;75245.09;4996440;28;20105;-78
2022/12/23 04:04:59;;;;;;;20.00;6.95;;;;;;;-148.88;100.00;75253.22;4997111;28;20026;-78
2022/12/23 04:07:33;;;;;;;14.85;6.15;;;;;;;-148.88;100.00;75236.97;4997032;28;20034;-78
2022/12/23 04:09:59;;;;;;;12.68;6.47;;;;;;;-148.88;100.00;75253.22;4996815;28;20440;-78
2022/12/23 04:12:26;;;;;;;15.85;6.20;;;;;;;-148.88;100.00;75249.16;4997249;28;20029;-78
2022/12/23 04:14:51;;;;;;;13.52;6.72;;;;;;;-148.88;100.00;75261.34;4997374;28;20030;-78
2022/12/23 04:17:17;;;;;;;13.52;7.18;;;;;;;-148.88;100.00;75263.38;4997094;28;20041;-78
2022/12/23 04:19:44;;;;;;;15.45;6.28;;;;;;;-148.88;100.00;75267.44;4997033;28;20137;-78
2022/12/23 04:22:13;;;;;;;14.10;7.85;;;;;;;-148.88;100.00;75271.50;4996563;28;20030;-78
2022/12/23 04:24:39;;;;;;;14.57;6.53;;;;;;;-148.88;100.00;75271.50;4995400;28;20411;-76
2022/12/23 04:27:06;;;;;;;18.33;10.70;;;;;;;-148.88;100.00;75265.41;4995342;28;20469;-77
2022/12/23 04:29:31;;;;;;;15.27;6.30;;;;;;;-148.88;100.00;75273.53;4995266;28;20460;-76
2022/12/23 04:31:56;;;;;;;13.40;6.22;;;;;;;-148.88;100.00;75271.50;4995367;28;20480;-76
2022/12/23 04:34:22;;;;;;;13.10;6.00;;;;;;;-148.88;100.00;75273.53;4995085;28;20040;-76
2022/12/23 04:36:47;;;;;;;11.80;5.30;;;;;;;-148.88;100.00;75275.56;4995365;28;20034;-76
2022/12/23 04:39:12;;;;;;;12.05;5.22;;;;;;;-148.88;100.00;75275.56;4994829;28;20383;-76
2022/12/23 04:41:40;;;;;;;9.88;4.60;;;;;;;-148.88;100.00;75265.41;4993394;28;20034;-76
2022/12/23 04:44:05;;;;;;;9.95;4.68;;;;;;;-148.88;100.00;75265.41;4995100;28;20027;-76
2022/12/23 04:46:30;;;;;;;8.98;4.72;;;;;;;-148.88;100.00;75269.47;4994811;28;20468;-76
2022/12/23 04:48:56;;;;;;;11.88;5.43;;;;;;;-148.88;100.00;75269.47;4995180;28;20530;-79
2022/12/23 04:51:22;;;;;;;13.05;5.60;;;;;;;-148.88;100.00;75265.41;4994831;28;20037;-77
2022/12/23 04:53:47;;;;;;;12.85;8.30;;;;;;;-148.88;100.00;75269.47;4994585;28;20428;-76
2022/12/23 04:56:12;;;;;;;10.50;4.10;;;;;;;-148.88;100.00;75273.53;4994781;28;20026;-78
2022/12/23 04:58:37;;;;;;;10.55;4.35;;;;;;;-148.88;100.00;75273.53;4995744;28;20029;-78
2022/12/23 05:01:06;;;;;;;12.32;5.57;;;;;;;-148.88;100.00;75281.66;4995508;28;20090;-77
2022/12/23 05:03:31;;;;;;;10.43;4.82;;;;;;;-148.88;100.00;75279.59;4995618;28;20026;-78
2022/12/23 05:05:57;;;;;;;12.52;6.35;;;;;;;-148.88;100.00;75279.59;4994832;28;20033;-78
2022/12/23 05:08:22;;;;;;;11.27;5.25;;;;;;;-148.88;100.00;75287.72;4995046;28;20026;-77
2022/12/23 05:10:47;;;;;;;15.35;6.40;;;;;;;-148.88;100.00;75297.88;4996276;28;20042;-78
2022/12/23 05:13:13;;;;;;;12.05;6.10;;;;;;;-148.88;100.00;75306.00;4997210;28;20330;-78
2022/12/23 05:15:38;;;;;;;16.92;6.18;;;;;;;-148.88;100.00;75312.09;4997681;28;20559;-79
2022/12/23 05:18:03;;;;;;;15.38;9.30;;;;;;;-148.88;100.00;75312.09;4997347;28;20030;-78
2022/12/23 05:20:28;;;;;;;12.63;7.38;;;;;;;-148.88;100.00;75332.41;4996748;28;20084;-78
2022/12/23 05:22:54;;;;;;;10.00;3.83;;;;;;;-148.88;100.00;75346.63;4995518;28;20026;-78
2022/12/23 05:25:19;;;;;;;9.38;4.07;;;;;;;-148.88;100.00;75350.69;4995315;28;20109;-79
2022/12/23 05:27:44;;;;;;;10.15;4.47;;;;;;;-148.88;100.00;75371.00;4993591;28;20022;-78
2022/12/23 05:30:10;;;;;;;11.95;5.32;;;;;;;-148.88;100.00;75375.06;4994985;28;20488;-78
2022/12/23 05:32:35;;;;;;;15.70;6.07;;;;;;;-148.88;100.00;75379.13;4994480;28;20022;-78
2022/12/23 05:35:00;;;;;;;16.75;6.80;;;;;;;-148.88;100.00;75387.25;4994350;28;20044;-78
2022/12/23 05:37:26;;;;;;;17.92;7.07;;;;;;;-148.88;100.00;75379.13;4994489;28;20216;-78
2022/12/23 05:39:51;;;;;;;19.63;8.38;;;;;;;-148.88;100.00;75391.31;4994419;28;20026;-78
2022/12/23 05:42:18;;;;;;;21.65;8.73;;;;;;;-148.88;100.00;75403.50;4994352;28;20383;-78
2022/12/23 05:44:44;;;;;;;18.85;8.90;;;;;;;-148.88;100.00;75403.50;4992881;28;20026;-78
2022/12/23 05:47:10;;;;;;;21.77;8.50;;;;;;;-148.88;100.00;75411.63;4994806;28;20084;-79
2022/12/23 05:49:35;;;;;;;22.45;8.73;;;;;;;-148.88;100.00;75419.75;4995646;28;20065;-78
2022/12/23 05:52:00;;;;;;;22.73;9.02;;;;;;;-148.88;100.00;75423.81;4994959;28;20598;-79
2022/12/23 05:54:25;;;;;;;21.92;9.05;;;;;;;-148.88;100.00;75423.81;4994914;28;20030;-78
2022/12/23 05:56:51;;;;;;;25.45;10.27;;;;;;;-148.88;100.00;75425.84;4995099;28;20022;-78
2022/12/23 05:59:16;;;;;;;25.95;11.02;;;;;;;-148.88;100.00;75429.91;4994704;28;20512;-78
2022/12/23 06:01:42;;;;;;;29.02;10.02;;;;;;;-148.88;100.00;75427.88;4995104;28;20038;-77
2022/12/23 06:04:07;;;;;;;26.38;10.23;;;;;;;-148.88;100.00;75431.94;4993531;28;20030;-77
2022/12/23 06:06:32;;;;;;;29.17;11.43;;;;;;;-148.88;100.00;75431.94;4994666;28;20018;-77
2022/12/23 06:08:57;;;;;;;34.20;11.27;;;;;;;-148.88;100.00;75436.00;4994845;28;20054;-78
2022/12/23 06:11:23;;;;;;;40.00;12.10;;;;;;;-148.88;100.00;75444.13;4994611;28;20113;-78
2022/12/23 06:13:48;;;;;;;36.83;12.38;;;;;;;-148.88;100.00;75452.25;4994619;28;20065;-77
2022/12/23 06:16:13;;;;;;;41.13;13.55;;;;;;;-148.88;100.00;75454.28;4994973;28;20028;-78
2022/12/23 06:18:39;;;;;;;39.30;13.50;;;;;;;-148.88;100.00;75450.22;4992884;28;20384;-78
2022/12/23 06:21:04;;;;;;;39.75;14.27;;;;;;;-148.88;100.00;75454.28;4994134;28;20080;-78
2022/12/23 06:23:29;;;;;;;41.92;14.07;;;;;;;-148.88;100.00;75458.34;4995125;28;20026;-79
2022/12/23 06:26:01;;;;;;;48.90;14.27;;;;;;;-148.88;100.00;75456.31;4999018;28;20472;-79
2022/12/23 06:28:28;;;;;;;49.65;15.27;;;;;;;-148.88;100.00;75464.44;4999859;28;20026;-79
2022/12/23 06:30:54;;;;;;;40.67;14.65;;;;;;;-148.88;100.00;75468.50;4999563;28;20034;-78
2022/12/23 06:33:20;;;;;;;46.78;15.90;;;;;;;-148.88;100.00;75470.53;4997865;28;20109;-78
2022/12/23 06:35:45;;;;;;;45.92;14.40;;;;;;;-148.88;100.00;75474.59;4997866;28;20440;-78
2022/12/23 06:38:10;;;;;;;45.50;15.32;;;;;;;-148.88;100.00;75474.59;4997791;28;20049;-78
2022/12/23 06:40:36;;;;;;;42.97;15.63;;;;;;;-148.88;100.00;75480.69;4997400;28;20555;-78
2022/12/23 06:43:01;;;;;;;45.13;14.38;;;;;;;-148.88;100.00;75470.53;4997451;28;20084;-77
2022/12/23 06:45:26;;;;;;;43.97;14.38;;;;;;;-148.88;100.00;75472.56;4997256;28;20077;-78
2022/12/23 06:47:51;;;;;;;42.88;14.27;;;;;;;-148.88;100.00;75484.75;4997451;28;20030;-78
2022/12/23 06:50:17;;;;;;;44.17;15.95;;;;;;;-148.88;100.00;75488.81;4997261;28;20026;-78
2022/12/23 06:52:42;;;;;;;41.00;15.18;;;;;;;-148.88;100.00;75486.78;4997265;28;20030;-78
2022/12/23 06:55:07;;;;;;;47.10;15.82;;;;;;;-148.88;100.00;75486.78;4997681;28;20031;-78
2022/12/23 06:57:33;;;;;;;38.90;14.77;;;;;;;-148.88;100.00;75488.81;4995540;28;20368;-78
2022/12/23 06:59:58;;;;;;;41.95;15.77;;;;;;;-148.88;100.00;75470.53;4997280;28;20022;-78
2022/12/23 07:02:23;;;;;;;47.88;15.68;;;;;;;-148.88;100.00;75480.69;4998271;28;20034;-78
2022/12/23 07:04:49;;;;;;;40.85;14.82;;;;;;;-148.88;100.00;75484.75;4997984;28;20536;-78
2022/12/23 07:07:14;;;;;;;38.13;14.77;;;;;;;-148.88;100.00;75484.75;4996910;28;20022;-78
2022/12/23 07:09:39;;;;;;;41.42;15.88;;;;;;;-148.88;100.00;75488.81;4996883;28;20037;-78
2022/12/23 07:12:05;;;;;;;37.30;14.45;;;;;;;-148.88;100.00;75488.81;4997424;28;20023;-79
2022/12/23 07:14:30;;;;;;;37.15;14.75;;;;;;;-148.88;100.00;75484.75;4998012;28;20045;-78
2022/12/23 07:16:55;;;;;;;38.10;14.05;;;;;;;-148.88;100.00;75494.91;4997370;28;20022;-79
2022/12/23 07:19:21;;;;;;;38.88;15.20;;;;;;;-148.88;100.00;75509.13;4997666;28;20038;-78
2022/12/23 07:21:46;;;;;;;31.50;13.50;;;;;;;-148.88;100.00;75490.84;4995771;28;20384;-78
2022/12/23 07:24:11;;;;;;;37.65;13.55;;;;;;;-148.88;100.00;75511.16;4996855;28;20024;-78
2022/12/23 07:26:39;;;;;;;39.08;13.50;;;;;;;-148.88;100.00;75521.31;4996602;28;20041;-79
2022/12/23 07:29:05;;;;;;;36.17;14.48;;;;;;;-148.88;100.00;75525.38;4995440;28;20501;-78
2022/12/23 07:31:30;;;;;;;32.50;13.00;;;;;;;-148.88;100.00;75513.19;4996470;28;20026;-78
2022/12/23 07:37:26;;;;;;;38.30;14.52;;;;;;;-148.88;100.00;75513.19;4996564;28;20045;-79
2022/12/23 07:39:54;;;;;;;38.20;13.73;;;;;;;-148.88;100.00;75505.06;4997533;28;20037;-78
2022/12/23 07:42:19;;;;;;;41.15;15.75;;;;;;;-148.88;100.00;75521.31;4996978;28;20025;-77
2022/12/23 07:44:44;;;;;;;35.92;15.18;;;;;;;-148.88;100.00;75525.38;4997094;28;20030;-78
2022/12/23 07:47:10;;;;;;;32.05;12.95;;;;;;;-148.88;100.00;75517.25;4997013;28;20477;-77
2022/12/23 07:49:35;;;;;;;38.35;15.20;;;;;;;-148.88;100.00;75523.34;4996833;28;20050;-77
2022/12/23 07:52:00;;;;;;;40.33;15.70;;;;;;;-148.88;100.00;75531.47;4996663;28;20022;-77
2022/12/23 07:54:25;;;;;;;38.40;15.90;;;;;;;-148.88;100.00;75525.38;4996532;28;20487;-77
2022/12/23 07:56:51;;;;;;;37.88;15.93;;;;;;;-148.88;100.00;75529.44;4997134;28;20110;-77
2022/12/23 07:59:16;;;;;;;47.15;17.60;;;;;;;-148.88;100.00;75531.47;4996721;28;20392;-77
2022/12/23 08:01:42;;;;;;;48.28;16.95;;;;;;;-148.88;100.00;75531.47;4996523;28;20105;-77
2022/12/23 08:04:07;;;;;;;42.17;17.88;;;;;;;-148.88;100.00;75535.53;4995835;28;20113;-77
2022/12/23 08:06:36;;;;;;;40.38;15.75;;;;;;;-148.88;100.00;75537.56;4994713;28;20114;-78
2022/12/23 08:09:02;;;;;;;39.42;15.82;;;;;;;-148.88;100.00;75539.59;4994449;28;20088;-77
2022/12/23 08:11:27;;;;;;;40.95;15.68;;;;;;;-148.88;100.00;75537.56;4995723;28;20034;-77
2022/12/23 08:13:52;;;;;;;37.97;16.00;;;;;;;-148.88;100.00;75537.56;4997147;28;20053;-78
2022/12/23 08:16:18;;;;;;;40.95;17.40;;;;;;;-148.88;100.00;75547.72;4997073;28;20361;-77
2022/12/23 08:18:43;;;;;;;39.45;16.48;;;;;;;-148.88;100.00;75541.63;4996345;28;20117;-77
2022/12/23 08:21:14;;;;;;;63.05;29.15;;;;;;;-148.88;100.00;75541.63;4995832;28;20487;-78
2022/12/23 08:23:40;;;;;;;40.20;17.02;;;;;;;-148.88;100.00;75549.75;4996008;28;20162;-77
2022/12/23 08:26:07;;;;;;;39.00;15.15;;;;;;;-148.88;100.00;75549.75;4994609;28;20125;-77
2022/12/23 08:28:34;;;;;;;38.20;16.02;;;;;;;-148.88;100.00;75557.88;4994452;28;20440;-78
2022/12/23 08:31:08;;;;;;;64.28;29.65;;;;;;;-148.88;100.00;75553.81;4995852;28;20036;-77
2022/12/23 08:33:35;;;;;;;60.67;29.70;;;;;;;-148.88;100.00;75547.72;4995566;28;20037;-78
2022/12/23 08:36:03;;;;;;;42.38;17.30;;;;;;;-148.88;100.00;75549.75;4995701;28;20097;-77
2022/12/23 08:38:29;;;;;;;42.17;16.30;;;;;;;-148.88;100.00;75553.81;4994210;28;20023;-77
2022/12/23 08:40:54;;;;;;;42.72;17.30;;;;;;;-148.88;100.00;75553.81;4995598;28;20380;-77
2022/12/23 08:43:19;;;;;;;42.67;17.27;;;;;;;-148.88;100.00;75551.78;4995505;28;20097;-77
2022/12/23 08:45:44;;;;;;;43.38;16.48;;;;;;;-148.88;100.00;75549.75;4995121;28;20044;-77
2022/12/23 08:48:12;;;;;;;39.67;16.15;;;;;;;-148.88;100.00;75551.78;4994781;28;20034;-77
2022/12/23 08:50:40;;;;;;;57.97;27.10;;;;;;;-148.88;100.00;75545.69;4996371;28;20022;-79
2022/12/23 08:53:07;;;;;;;39.13;15.82;;;;;;;-148.88;100.00;75543.66;4994206;28;20077;-78
2022/12/23 08:55:51;;;;;;;35.83;15.52;;;;;;;-148.88;100.00;75541.63;4995508;28;20468;-79
2022/12/23 08:58:16;;;;;;;;;;;;;;;-148.88;100.00;75543.66;4995707;28;20029;-79
2022/12/23 09:00:41;;;;;;;32.03;13.07;;;;;;;-148.88;100.00;75541.63;4995273;28;19920;-78
2022/12/23 09:03:07;;;;;;;54.25;26.65;;;;;;;-148.88;100.00;75555.84;4995106;28;20299;-78
2022/12/23 09:05:37;;;;;;;34.38;13.65;;;;;;;-148.88;100.00;75533.50;4993205;28;20078;-78
2022/12/23 09:08:02;;;;;;;35.65;14.35;;;;;;;-148.88;100.00;75549.75;4994636;28;20030;-78
2022/12/23 09:10:28;;;;;;;47.40;26.17;;;;;;;-148.88;100.00;75541.63;4994519;28;20096;-78
2022/12/23 09:12:54;;;;;;;41.00;15.32;;;;;;;-148.88;100.00;75533.50;4995082;28;20061;-78
2022/12/23 09:15:19;;;;;;;33.92;14.40;;;;;;;-148.88;100.00;75541.63;4994484;28;20022;-78
2022/12/23 09:17:44;;;;;;;36.22;14.32;;;;;;;-148.88;100.00;75549.75;4995126;28;20033;-78
2022/12/23 09:20:10;;;;;;;40.60;17.65;;;;;;;-148.88;100.00;75533.50;4993761;28;20046;-78
2022/12/23 09:22:35;;;;;;;36.05;15.02;;;;;;;-148.88;100.00;75525.38;4993186;28;20025;-77
2022/12/23 09:25:01;;;;;;;36.92;14.95;;;;;;;-148.88;100.00;75529.44;4994899;28;20054;-78
2022/12/23 09:27:26;;;;;;;40.47;16.08;;;;;;;-148.88;100.00;75533.50;4995699;28;20028;-79
2022/12/23 09:29:51;;;;;;;38.65;14.75;;;;;;;-148.88;100.00;75517.25;4995778;28;20109;-79
2022/12/23 09:32:18;;;;;;;36.55;14.95;;;;;;;-148.88;100.00;75523.34;4994692;28;20030;-79
2022/12/23 09:34:43;;;;;;;38.22;15.90;;;;;;;-148.88;100.00;75531.47;4994615;28;20032;-79
2022/12/23 09:37:08;;;;;;;34.97;13.45;;;;;;;-148.88;100.00;75537.56;4995087;28;20109;-79
2022/12/23 09:39:34;;;;;;;38.97;14.55;;;;;;;-148.88;100.00;75545.69;4994214;28;20085;-78
2022/12/23 09:42:13;;;;;;;36.85;15.48;;;;;;;-148.88;100.00;75541.63;4993344;28;20472;-78
2022/12/23 09:45:07;;;;;;;35.20;15.15;;;;;;;-148.88;100.00;75549.75;4993042;28;20022;-78
2022/12/23 09:47:33;;;;;;;37.08;14.52;;;;;;;-148.88;100.00;75551.78;4994885;28;20061;-79
2022/12/23 09:50:03;;;;;;;38.03;15.40;;;;;;;-148.88;100.00;75547.72;4994703;28;20105;-78
2022/12/23 09:52:57;;;;;;;38.72;15.05;;;;;;;-148.88;100.00;75561.94;4994015;28;20061;-78
2022/12/23 09:55:33;;;;;;;35.10;14.15;;;;;;;-148.88;100.00;75598.47;4994030;28;20042;-78
2022/12/23 09:58:04;;;;;;;37.55;13.30;;;;;;;-148.88;100.00;75606.59;4994104;28;20109;-78
2022/12/23 10:00:40;;;;;;;41.97;14.80;;;;;;;-148.88;100.00;75606.59;5010989;22;20072;-79
2022/12/23 10:03:22;;;;;;;65.13;16.08;;;;;;;-148.88;100.00;75602.53;5019897;28;20049;-79
2022/12/23 10:05:55;;;;;;;65.05;16.85;;;;;;;-148.88;100.00;75608.63;5018070;28;20488;-79
2022/12/23 10:08:23;;;;;;;40.67;12.43;;;;;;;-148.88;100.00;75612.69;5017056;28;20141;-80
2022/12/23 10:10:52;;;;;;;42.65;13.60;;;;;;;-148.88;100.00;75614.72;5017192;28;20037;-78
2022/12/23 10:13:24;;;;;;;35.38;11.40;;;;;;;-148.88;100.00;75610.66;5078518;22;20050;-81
2022/12/23 10:15:50;;;;;;;39.00;11.57;;;;;;;-148.88;100.00;75610.66;5017545;28;20030;-83
2022/12/23 10:18:32;;;;;;;32.85;12.07;;;;;;;-148.88;100.00;75610.66;5019180;28;20021;-83
2022/12/23 10:21:03;;;;;;;36.20;11.60;;;;;;;-148.88;100.00;75608.63;5018683;28;20022;-84
2022/12/23 10:23:36;;;;;;;92.25;13.70;;;;;;;-148.88;100.00;75608.63;5016442;28;20022;-84
2022/12/23 10:26:11;;;;;;;54.28;13.00;;;;;;;-148.88;100.00;75602.53;5015500;28;20026;-81
2022/12/23 10:28:36;;;;;;;37.75;11.90;;;;;;;-148.88;100.00;75592.38;5017096;28;20086;-84
2022/12/23 10:31:04;;;;;;;44.20;12.27;;;;;;;-148.88;100.00;75598.47;5021296;28;20030;-83
2022/12/23 10:33:48;;;;;;;36.80;11.75;;;;;;;-148.88;100.00;75584.25;5015950;28;20022;-82
2022/12/23 10:36:26;;;;;;;35.47;12.65;;;;;;;-148.88;100.00;75590.34;5015945;28;20034;-82
2022/12/23 10:39:10;;;;;;;33.17;11.75;;;;;;;-148.88;100.00;75584.25;5017008;28;20492;-82
2022/12/23 10:41:46;;;;;;;27.90;10.30;;;;;;;-148.88;100.00;75582.22;5017725;28;20096;-83
2022/12/23 10:44:56;;;;;;;28.73;10.80;;;;;;;-148.88;100.00;75574.13;5018746;28;20036;-83
2022/12/23 10:47:24;;;;;;;28.00;10.70;;;;;;;-148.88;100.00;75566.00;5020803;28;20037;-83
2022/12/23 10:50:23;;;;;;;29.08;10.40;;;;;;;-148.88;100.00;75563.97;5019946;28;20384;-85
2022/12/23 10:52:50;;;;;;;27.95;10.23;;;;;;;-148.88;100.00;75549.75;5017828;28;20052;-84
2022/12/23 10:55:26;;;;;;;30.08;10.73;;;;;;;-148.88;100.00;75553.81;5018905;28;20030;-83
2022/12/23 10:57:54;;;;;;;29.73;10.48;;;;;;;-148.88;100.00;75539.59;5017379;28;20076;-85
2022/12/23 11:00:21;;;;;;;29.27;11.02;;;;;;;-148.88;100.00;75537.56;5018873;28;20026;-85
2022/12/23 11:03:04;;;;;;;27.35;9.35;;;;;;;-148.88;100.00;75537.56;5017717;28;20067;-83
2022/12/23 11:05:29;;;;;;;25.83;10.05;;;;;;;-148.88;100.00;75545.69;5019975;28;20116;-83
2022/12/23 11:07:55;;;;;;;26.88;9.30;;;;;;;-148.88;100.00;75527.41;5018604;28;20034;-83
2022/12/23 11:10:24;;;;;;;31.33;10.20;;;;;;;-148.88;100.00;75521.31;5022406;28;20033;-85
2022/12/23 11:12:52;;;;;;;27.33;9.50;;;;;;;-148.88;100.00;75517.25;5017629;28;20026;-83
2022/12/23 11:15:38;;;;;;;30.85;11.05;;;;;;;-148.88;100.00;75509.13;5021536;28;20033;-84
2022/12/23 11:18:13;;;;;;;27.05;10.18;;;;;;;-148.88;100.00;75503.03;5027552;28;20034;-83
2022/12/23 11:20:44;;;;;;;37.95;17.15;;;;;;;-148.88;100.00;75505.06;5018634;28;20089;-83
2022/12/23 11:23:31;;;;;;;44.33;19.02;;;;;;;-148.88;100.00;75505.06;5016942;28;20021;-83
2022/12/23 11:26:12;;;;;;;40.38;19.02;;;;;;;-148.88;100.00;75501.00;5016650;28;20025;-86
2022/12/23 11:28:48;;;;;;;28.88;9.82;;;;;;;-148.88;100.00;75496.94;5017520;28;20034;-84
2022/12/23 11:31:14;;;;;;;25.33;9.63;;;;;;;-148.88;100.00;75492.88;5017556;28;20025;-83
2022/12/23 11:33:58;;;;;;;25.77;10.30;;;;;;;-148.88;100.00;75486.78;5021589;28;20073;-85
2022/12/23 11:36:28;;;;;;;36.22;16.70;;;;;;;-148.88;100.00;75492.88;5041188;28;20030;-87
2022/12/23 11:39:14;;;;;;;35.72;17.40;;;;;;;-148.88;100.00;75488.81;5035311;28;20030;-84
2022/12/23 11:41:49;;;;;;;25.83;11.43;;;;;;;-148.88;100.00;75480.69;5016487;28;20026;-84
2022/12/23 11:44:26;;;;;;;26.40;10.88;;;;;;;-148.88;100.00;75472.56;5016131;28;20500;-86
2022/12/23 11:46:52;;;;;;;27.65;10.95;;;;;;;-148.88;100.00;75470.53;5015846;28;20026;-84